Woodbridge, California
Current Conditions -  °F | °C
As of 9:55 AM on Saturday 20 Dec 2014 (Local Time) from KSCK Reporting Station
Broken Clouds Broken Clouds  
Wind Chill: 54°   Ceiling: 600
Heat Index: 54°   Visibility: 10mi
Dew Point: 52°   Wind: 7mph
Humidity: 93%   Direction: 130°SE
Pressure: 30.23"   Gusts: NA
Location:  38.15°N, 121.3°W
Report Text: KSCK 201755Z 13006KT 10SM BKN006 12/11 A3023 RMK AO2 SLP235 60013 T01220111 10122 20111 53020
Loading
Personal Weather Stations






























Interactive Weather Map New forecast layout! Learn more

10-Day Weather Forecast

Advertisements
Track Severe Weather on mobile